Αναφορές METAR Αεροδρομίων

 

LGTS - THESSALONIKI - GREECE
Ενημερώθηκε: 26/06/2017 18:20
Αραιές Νεφώσεις
Αραιές Νεφώσεις
 Ανεμος από Ν
Ανεμος: Ν 20 km/h
Θερμοκρασία: 31°C
Σημ. Δρόσου: 12°C
Υγρασία: 31%
Βαρόμετρο: 1009 hPa
Clouds: Αραιές Νεφώσεις
Visibility: 10 km
Cloud details: Αραιές Νεφώσεις 762 m
2017/06/26 15:20 LGTS 261520Z 17011KT 9999 FEW025 31/12 Q1009 NOSIG
LGLR - LARTISA - GREECE
Ενημερώθηκε: 26/06/2017 17:50
Thunderstorm, Μερικώς νεφελώδης
Thunderstorm, Μερικώς νεφελώδης
 Ανεμος από Α
Ανεμος: Α 15 km/h
Θερμοκρασία: 32°C
Δείκτης θερμότητας: 33°C
Σημ. Δρόσου: 18°C
Υγρασία: 43%
Βαρόμετρο: 1009 hPa
Περίληψη: Thunderstorm
Clouds: Μερικώς νεφελώδης
Visibility: 10 km
Cloud details: Αραιές Νεφώσεις 549 m
Αραιές Νεφώσεις 914 m
Μερικώς νεφελώδης 2743 m
2017/06/26 14:50 LGLR 261450Z 09008KT 9999 TS FEW018CB FEW030TCU SCT090 32/18 Q1009 RMK BKN180 CB SW 20KM BLU
 
LGKZ - KOZANI - GREECE
Ενημερώθηκε: 26/06/2017 17:50
Μερικώς νεφελώδης
Μερικώς νεφελώδης
 Ανεμος από Β
Ανεμος: Β 7 km/h
Θερμοκρασία: 24°C
Σημ. Δρόσου: 18°C
Υγρασία: 69%
Βαρόμετρο: 1014 hPa
Clouds: Μερικώς νεφελώδης
Visibility: 10 km
Cloud details: Αραιές Νεφώσεις 914 m
Μερικώς νεφελώδης 2134 m
2017/06/26 14:50 LGKZ 261450Z 35004KT 9999 FEW030TCU SCT070 24/18 Q1014
LGKV - KAVALA - GREECE
Ενημερώθηκε: 26/06/2017 17:50
Αραιές Νεφώσεις
Αραιές Νεφώσεις
 Ανεμος από Δ
Ανεμος: Δ 9 km/h
Θερμοκρασία: 29°C
Δείκτης θερμότητας: 30°C
Σημ. Δρόσου: 19°C
Υγρασία: 55%
Βαρόμετρο: 1009 hPa
Clouds: Αραιές Νεφώσεις
Visibility: 10 km
Cloud details: Αραιές Νεφώσεις 914 m
2017/06/26 14:50 LGKV 261450Z 27005KT 9999 FEW030 29/19 Q1009
 
LGIO - IOANNINA - GREECE
Ενημερώθηκε: 26/06/2017 18:20
Μερικώς νεφελώδης
Μερικώς νεφελώδης
 Ανεμος από varies
Ανεμος: varies 0 km/h
Θερμοκρασία: 29°C
Δείκτης θερμότητας: 29°C
Σημ. Δρόσου: 17°C
Υγρασία: 48%
Βαρόμετρο: 1014 hPa
Clouds: Μερικώς νεφελώδης
Visibility: 10 km
Cloud details: Αραιές Νεφώσεις 762 m
Μερικώς νεφελώδης 914 m
2017/06/26 15:20 LGIO 261520Z /////KT 9999 FEW025CB SCT030TCU 29/17 Q1014
LGBL - BOLOS - GREECE
Ενημερώθηκε: 26/06/2017 18:20
Αραιές Νεφώσεις
Αραιές Νεφώσεις
 Ανεμος από Α
Ανεμος: Α 19 km/h
Θερμοκρασία: 30°C
Σημ. Δρόσου: 14°C
Υγρασία: 38%
Βαρόμετρο: 1009 hPa
Clouds: Αραιές Νεφώσεις
Visibility: 10 km
Cloud details: Αραιές Νεφώσεις 610 m
2017/06/26 15:20 LGBL 261520Z 10010KT 9999 FEW020TCU 30/14 Q1009
 
LGMT - MITILINI - GREECE
Ενημερώθηκε: 26/06/2017 18:20
Αίθριος
Αίθριος
 Ανεμος από varies
Ανεμος: varies 4 km/h
Θερμοκρασία: 34°C
Σημ. Δρόσου: 16°C
Υγρασία: 34%
Βαρόμετρο: 1008 hPa
Περίληψη: Αίθριος
Visibility: greater than 10 km
2017/06/26 15:20 LGMT 261520Z VRB02KT CAVOK 34/16 Q1008
LGAV - ATHENS - GREECE
Ενημερώθηκε: 26/06/2017 18:20
Αίθριος
Αίθριος
 Ανεμος από ΒΑ
Ανεμος: ΒΑ 9 km/h
Θερμοκρασία: 32°C
Σημ. Δρόσου: 12°C
Υγρασία: 29%
Βαρόμετρο: 1010 hPa
Περίληψη: Αίθριος
Visibility: greater than 10 km
2017/06/26 15:20 LGAV 261520Z 04005KT 010V100 CAVOK 32/12 Q1010 NOSIG
 
LGRP - RODOS - GREECE
Ενημερώθηκε: 26/06/2017 18:20
Αραιές Νεφώσεις
Αραιές Νεφώσεις
 Ανεμος από ΔΝΔ
Ανεμος: ΔΝΔ 26 km/h
Θερμοκρασία: 31°C
Σημ. Δρόσου: 15°C
Υγρασία: 38%
Βαρόμετρο: 1007 hPa
Clouds: Αραιές Νεφώσεις
Visibility: 10 km
Cloud details: Αραιές Νεφώσεις 549 m
2017/06/26 15:20 LGRP 261520Z 25014KT 9999 FEW018 31/15 Q1007 NOSIG
LGIR - HRAKLIO/KRITI - GREECE
Ενημερώθηκε: 26/06/2017 18:20
Αραιές Νεφώσεις
Αραιές Νεφώσεις
 Ανεμος από ΒΔ
Ανεμος: ΒΔ 9 km/h
Θερμοκρασία: 29°C
Δείκτης θερμότητας: 32°C
Σημ. Δρόσου: 23°C
Υγρασία: 70%
Βαρόμετρο: 1010 hPa
Clouds: Αραιές Νεφώσεις
Visibility: 10 km
Cloud details: Αραιές Νεφώσεις 762 m
2017/06/26 15:20 LGIR 261520Z 31005KT 9999 FEW025 29/23 Q1010 NOSIG
 
LGMK - MIKONOS - GREECE
Ενημερώθηκε: 26/06/2017 18:20
Αίθριος
Αίθριος
 Ανεμος από ΒΒΑ
Ανεμος: ΒΒΑ 22 km/h
Θερμοκρασία: 31°C
Σημ. Δρόσου: 12°C
Υγρασία: 31%
Βαρόμετρο: 1010 hPa
Περίληψη: Αίθριος
Visibility: greater than 10 km
2017/06/26 15:20 LGMK 261520Z 02012KT CAVOK 31/12 Q1010
LGKR - KERKIRA - GREECE
Ενημερώθηκε: 26/06/2017 18:20
Αραιές Νεφώσεις
Αραιές Νεφώσεις
 Ανεμος από ΒΒΑ
Ανεμος: ΒΒΑ 13 km/h
Θερμοκρασία: 32°C
Δείκτης θερμότητας: 34°C
Σημ. Δρόσου: 20°C
Υγρασία: 49%
Βαρόμετρο: 1010 hPa
Clouds: Αραιές Νεφώσεις
Visibility: 10 km
Cloud details: Αραιές Νεφώσεις 914 m
2017/06/26 15:20 LGKR 261520Z 03007KT 9999 FEW030 32/20 Q1010 NOSIG